sensor_id;sensor_type;location;lat;lon;timestamp;P1;durP1;ratioP1;P2;durP2;ratioP2
42284;SDS011;27942;47.510;18.966;2022-08-16T00:02:18;1.95;;;0.70;;
42284;SDS011;27942;47.510;18.966;2022-08-16T00:04:43;2.50;;;0.80;;
42284;SDS011;27942;47.510;18.966;2022-08-16T00:07:09;2.83;;;1.50;;
42284;SDS011;27942;47.510;18.966;2022-08-16T00:09:34;1.45;;;0.80;;
42284;SDS011;27942;47.510;18.966;2022-08-16T00:12:00;1.13;;;0.75;;
42284;SDS011;27942;47.510;18.966;2022-08-16T00:14:27;1.38;;;0.77;;
42284;SDS011;27942;47.510;18.966;2022-08-16T00:16:52;2.70;;;1.17;;
42284;SDS011;27942;47.510;18.966;2022-08-16T00:19:24;1.45;;;0.80;;
42284;SDS011;27942;47.510;18.966;2022-08-16T00:21:51;1.48;;;1.00;;
42284;SDS011;27942;47.510;18.966;2022-08-16T00:24:17;0.88;;;0.60;;
42284;SDS011;27942;47.510;18.966;2022-08-16T00:26:43;2.22;;;0.85;;
42284;SDS011;27942;47.510;18.966;2022-08-16T00:29:08;1.75;;;0.90;;
42284;SDS011;27942;47.510;18.966;2022-08-16T00:31:34;2.03;;;0.95;;
42284;SDS011;27942;47.510;18.966;2022-08-16T00:33:59;3.20;;;1.17;;
42284;SDS011;27942;47.510;18.966;2022-08-16T00:36:25;1.67;;;0.88;;
42284;SDS011;27942;47.510;18.966;2022-08-16T00:38:50;1.83;;;0.88;;
42284;SDS011;27942;47.510;18.966;2022-08-16T00:41:15;1.45;;;0.75;;
42284;SDS011;27942;47.510;18.966;2022-08-16T00:43:41;1.88;;;0.88;;
42284;SDS011;27942;47.510;18.966;2022-08-16T00:46:53;1.38;;;0.90;;
42284;SDS011;27942;47.510;18.966;2022-08-16T00:48:52;2.97;;;1.23;;
42284;SDS011;27942;47.510;18.966;2022-08-16T00:51:19;3.55;;;1.30;;
42284;SDS011;27942;47.510;18.966;2022-08-16T00:53:45;1.73;;;0.90;;
42284;SDS011;27942;47.510;18.966;2022-08-16T00:56:12;1.95;;;0.95;;
42284;SDS011;27942;47.510;18.966;2022-08-16T00:58:39;4.28;;;1.20;;
42284;SDS011;27942;47.510;18.966;2022-08-16T01:01:06;2.47;;;1.00;;
42284;SDS011;27942;47.510;18.966;2022-08-16T01:03:31;1.73;;;1.05;;
42284;SDS011;27942;47.510;18.966;2022-08-16T01:05:57;1.63;;;0.90;;
42284;SDS011;27942;47.510;18.966;2022-08-16T01:08:23;2.50;;;1.15;;
42284;SDS011;27942;47.510;18.966;2022-08-16T01:10:50;1.08;;;0.73;;
42284;SDS011;27942;47.510;18.966;2022-08-16T01:13:18;1.83;;;1.08;;
42284;SDS011;27942;47.510;18.966;2022-08-16T01:15:45;1.57;;;1.00;;
42284;SDS011;27942;47.510;18.966;2022-08-16T01:18:12;3.28;;;1.25;;
42284;SDS011;27942;47.510;18.966;2022-08-16T01:20:43;1.98;;;0.95;;
42284;SDS011;27942;47.510;18.966;2022-08-16T01:23:12;2.47;;;1.30;;
42284;SDS011;27942;47.510;18.966;2022-08-16T01:25:39;1.92;;;0.98;;
42284;SDS011;27942;47.510;18.966;2022-08-16T01:28:10;2.85;;;1.13;;
42284;SDS011;27942;47.510;18.966;2022-08-16T01:30:37;1.75;;;1.17;;
42284;SDS011;27942;47.510;18.966;2022-08-16T01:33:04;1.75;;;0.85;;
42284;SDS011;27942;47.510;18.966;2022-08-16T01:38:19;3.60;;;0.98;;
42284;SDS011;27942;47.510;18.966;2022-08-16T01:40:45;1.50;;;0.85;;
42284;SDS011;27942;47.510;18.966;2022-08-16T01:43:10;1.33;;;0.90;;
42284;SDS011;27942;47.510;18.966;2022-08-16T01:45:35;2.15;;;0.88;;
42284;SDS011;27942;47.510;18.966;2022-08-16T01:48:01;1.13;;;0.85;;
42284;SDS011;27942;47.510;18.966;2022-08-16T01:50:26;1.83;;;0.90;;
42284;SDS011;27942;47.510;18.966;2022-08-16T01:52:52;2.00;;;1.10;;
42284;SDS011;27942;47.510;18.966;2022-08-16T01:55:19;1.60;;;0.85;;
42284;SDS011;27942;47.510;18.966;2022-08-16T01:57:45;1.35;;;0.80;;
42284;SDS011;27942;47.510;18.966;2022-08-16T02:00:10;1.58;;;0.85;;
42284;SDS011;27942;47.510;18.966;2022-08-16T02:02:36;0.77;;;0.65;;
42284;SDS011;27942;47.510;18.966;2022-08-16T02:05:01;2.22;;;1.00;;
42284;SDS011;27942;47.510;18.966;2022-08-16T02:07:26;1.85;;;0.90;;
42284;SDS011;27942;47.510;18.966;2022-08-16T02:09:51;2.05;;;0.95;;
42284;SDS011;27942;47.510;18.966;2022-08-16T02:12:18;1.73;;;1.05;;
42284;SDS011;27942;47.510;18.966;2022-08-16T02:14:43;1.40;;;0.90;;
42284;SDS011;27942;47.510;18.966;2022-08-16T02:17:09;0.93;;;0.60;;
42284;SDS011;27942;47.510;18.966;2022-08-16T02:19:37;2.65;;;1.17;;
42284;SDS011;27942;47.510;18.966;2022-08-16T02:22:03;1.70;;;1.00;;
42284;SDS011;27942;47.510;18.966;2022-08-16T02:24:29;1.20;;;0.85;;
42284;SDS011;27942;47.510;18.966;2022-08-16T02:26:54;1.98;;;1.05;;
42284;SDS011;27942;47.510;18.966;2022-08-16T02:29:20;1.75;;;0.90;;
42284;SDS011;27942;47.510;18.966;2022-08-16T02:31:46;2.33;;;0.88;;
42284;SDS011;27942;47.510;18.966;2022-08-16T02:34:12;2.90;;;0.95;;
42284;SDS011;27942;47.510;18.966;2022-08-16T02:36:38;1.20;;;0.80;;
42284;SDS011;27942;47.510;18.966;2022-08-16T02:39:04;1.70;;;0.88;;
42284;SDS011;27942;47.510;18.966;2022-08-16T02:41:30;2.60;;;0.90;;
42284;SDS011;27942;47.510;18.966;2022-08-16T02:43:55;1.45;;;1.00;;
42284;SDS011;27942;47.510;18.966;2022-08-16T02:46:21;0.90;;;0.65;;
42284;SDS011;27942;47.510;18.966;2022-08-16T02:48:46;1.63;;;0.95;;
42284;SDS011;27942;47.510;18.966;2022-08-16T02:51:11;1.98;;;1.15;;
42284;SDS011;27942;47.510;18.966;2022-08-16T02:53:38;1.58;;;0.90;;
42284;SDS011;27942;47.510;18.966;2022-08-16T02:56:04;1.98;;;1.13;;
42284;SDS011;27942;47.510;18.966;2022-08-16T02:58:29;1.45;;;1.00;;
42284;SDS011;27942;47.510;18.966;2022-08-16T03:00:56;1.95;;;0.88;;
42284;SDS011;27942;47.510;18.966;2022-08-16T03:03:22;1.23;;;0.70;;
42284;SDS011;27942;47.510;18.966;2022-08-16T03:05:47;1.58;;;0.80;;
42284;SDS011;27942;47.510;18.966;2022-08-16T03:08:12;3.20;;;0.82;;
42284;SDS011;27942;47.510;18.966;2022-08-16T03:10:38;1.42;;;0.77;;
42284;SDS011;27942;47.510;18.966;2022-08-16T03:13:03;1.42;;;0.75;;
42284;SDS011;27942;47.510;18.966;2022-08-16T03:15:28;1.75;;;0.60;;
42284;SDS011;27942;47.510;18.966;2022-08-16T03:17:54;0.90;;;0.70;;
42284;SDS011;27942;47.510;18.966;2022-08-16T03:20:19;1.08;;;0.55;;
42284;SDS011;27942;47.510;18.966;2022-08-16T03:22:45;1.60;;;0.73;;
42284;SDS011;27942;47.510;18.966;2022-08-16T03:25:11;4.47;;;0.77;;
42284;SDS011;27942;47.510;18.966;2022-08-16T03:27:38;0.90;;;0.52;;
42284;SDS011;27942;47.510;18.966;2022-08-16T03:30:05;1.15;;;0.60;;
42284;SDS011;27942;47.510;18.966;2022-08-16T03:32:31;0.82;;;0.68;;
42284;SDS011;27942;47.510;18.966;2022-08-16T03:34:56;0.93;;;0.65;;
42284;SDS011;27942;47.510;18.966;2022-08-16T03:37:22;1.00;;;0.68;;
42284;SDS011;27942;47.510;18.966;2022-08-16T03:39:47;2.53;;;1.13;;
42284;SDS011;27942;47.510;18.966;2022-08-16T03:42:12;1.10;;;0.60;;
42284;SDS011;27942;47.510;18.966;2022-08-16T03:44:37;1.55;;;0.93;;
42284;SDS011;27942;47.510;18.966;2022-08-16T03:47:03;0.45;;;0.45;;
42284;SDS011;27942;47.510;18.966;2022-08-16T03:49:28;1.73;;;0.70;;
42284;SDS011;27942;47.510;18.966;2022-08-16T03:51:54;0.57;;;0.40;;
42284;SDS011;27942;47.510;18.966;2022-08-16T03:54:20;1.13;;;0.65;;
42284;SDS011;27942;47.510;18.966;2022-08-16T03:56:45;1.33;;;0.70;;
42284;SDS011;27942;47.510;18.966;2022-08-16T03:59:10;1.45;;;1.00;;
42284;SDS011;27942;47.510;18.966;2022-08-16T04:01:37;1.33;;;0.68;;
42284;SDS011;27942;47.510;18.966;2022-08-16T04:04:02;0.75;;;0.43;;
42284;SDS011;27942;47.510;18.966;2022-08-16T04:06:27;0.90;;;0.60;;
42284;SDS011;27942;47.510;18.966;2022-08-16T04:08:53;1.42;;;0.77;;
42284;SDS011;27942;47.510;18.966;2022-08-16T04:11:18;1.77;;;1.05;;
42284;SDS011;27942;47.510;18.966;2022-08-16T04:13:43;0.95;;;0.40;;
42284;SDS011;27942;47.510;18.966;2022-08-16T04:16:09;2.47;;;0.70;;
42284;SDS011;27942;47.510;18.966;2022-08-16T04:18:36;0.75;;;0.57;;
42284;SDS011;27942;47.510;18.966;2022-08-16T04:21:03;1.63;;;0.68;;
42284;SDS011;27942;47.510;18.966;2022-08-16T04:23:28;0.65;;;0.50;;
42284;SDS011;27942;47.510;18.966;2022-08-16T04:25:54;1.23;;;0.80;;
42284;SDS011;27942;47.510;18.966;2022-08-16T04:28:19;1.40;;;0.70;;
42284;SDS011;27942;47.510;18.966;2022-08-16T04:30:44;2.03;;;0.77;;
42284;SDS011;27942;47.510;18.966;2022-08-16T04:33:09;1.95;;;0.77;;
42284;SDS011;27942;47.510;18.966;2022-08-16T04:35:34;0.68;;;0.50;;
42284;SDS011;27942;47.510;18.966;2022-08-16T04:38:00;2.03;;;0.70;;
42284;SDS011;27942;47.510;18.966;2022-08-16T04:40:25;1.77;;;0.85;;
42284;SDS011;27942;47.510;18.966;2022-08-16T04:42:51;1.23;;;0.40;;
42284;SDS011;27942;47.510;18.966;2022-08-16T04:45:17;1.13;;;0.60;;
42284;SDS011;27942;47.510;18.966;2022-08-16T04:47:42;1.33;;;0.75;;
42284;SDS011;27942;47.510;18.966;2022-08-16T04:50:15;0.95;;;0.70;;
42284;SDS011;27942;47.510;18.966;2022-08-16T04:52:43;1.40;;;0.68;;
42284;SDS011;27942;47.510;18.966;2022-08-16T04:55:09;0.97;;;0.70;;
42284;SDS011;27942;47.510;18.966;2022-08-16T04:57:36;1.55;;;0.80;;
42284;SDS011;27942;47.510;18.966;2022-08-16T05:00:03;1.33;;;0.80;;
42284;SDS011;27942;47.510;18.966;2022-08-16T05:02:28;1.02;;;0.70;;
42284;SDS011;27942;47.510;18.966;2022-08-16T05:04:53;2.30;;;0.68;;
42284;SDS011;27942;47.510;18.966;2022-08-16T05:07:19;0.50;;;0.40;;
42284;SDS011;27942;47.510;18.966;2022-08-16T05:09:44;1.58;;;0.85;;
42284;SDS011;27942;47.510;18.966;2022-08-16T05:12:09;1.70;;;1.20;;
42284;SDS011;27942;47.510;18.966;2022-08-16T05:14:34;1.40;;;0.82;;
42284;SDS011;27942;47.510;18.966;2022-08-16T05:17:00;1.25;;;0.70;;
42284;SDS011;27942;47.510;18.966;2022-08-16T05:19:25;1.80;;;0.80;;
42284;SDS011;27942;47.510;18.966;2022-08-16T05:21:50;0.93;;;0.80;;
42284;SDS011;27942;47.510;18.966;2022-08-16T05:24:16;1.13;;;0.82;;
42284;SDS011;27942;47.510;18.966;2022-08-16T05:26:41;1.70;;;1.00;;
42284;SDS011;27942;47.510;18.966;2022-08-16T05:29:07;1.02;;;0.80;;
42284;SDS011;27942;47.510;18.966;2022-08-16T05:31:32;2.08;;;1.10;;
42284;SDS011;27942;47.510;18.966;2022-08-16T05:33:58;1.45;;;0.70;;
42284;SDS011;27942;47.510;18.966;2022-08-16T05:36:24;2.60;;;0.88;;
42284;SDS011;27942;47.510;18.966;2022-08-16T05:38:49;2.45;;;1.10;;
42284;SDS011;27942;47.510;18.966;2022-08-16T05:41:14;1.85;;;1.15;;
42284;SDS011;27942;47.510;18.966;2022-08-16T05:43:40;2.25;;;1.25;;
42284;SDS011;27942;47.510;18.966;2022-08-16T05:46:05;1.42;;;0.93;;
42284;SDS011;27942;47.510;18.966;2022-08-16T05:48:30;2.75;;;0.88;;
42284;SDS011;27942;47.510;18.966;2022-08-16T05:50:55;1.90;;;0.75;;
42284;SDS011;27942;47.510;18.966;2022-08-16T05:53:21;2.13;;;0.82;;
42284;SDS011;27942;47.510;18.966;2022-08-16T05:55:46;1.45;;;0.98;;
42284;SDS011;27942;47.510;18.966;2022-08-16T05:58:12;2.08;;;1.15;;
42284;SDS011;27942;47.510;18.966;2022-08-16T06:00:37;1.02;;;0.65;;
42284;SDS011;27942;47.510;18.966;2022-08-16T06:03:02;2.10;;;0.90;;
42284;SDS011;27942;47.510;18.966;2022-08-16T06:05:28;1.50;;;1.00;;
42284;SDS011;27942;47.510;18.966;2022-08-16T06:07:53;1.95;;;1.20;;
42284;SDS011;27942;47.510;18.966;2022-08-16T06:10:18;1.67;;;1.20;;
42284;SDS011;27942;47.510;18.966;2022-08-16T06:12:44;1.85;;;1.20;;
42284;SDS011;27942;47.510;18.966;2022-08-16T06:15:11;1.42;;;0.90;;
42284;SDS011;27942;47.510;18.966;2022-08-16T06:17:37;2.47;;;1.30;;
42284;SDS011;27942;47.510;18.966;2022-08-16T06:20:03;2.38;;;1.08;;
42284;SDS011;27942;47.510;18.966;2022-08-16T06:22:29;1.25;;;0.85;;
42284;SDS011;27942;47.510;18.966;2022-08-16T06:24:54;1.55;;;1.10;;
42284;SDS011;27942;47.510;18.966;2022-08-16T06:27:19;2.03;;;1.05;;
42284;SDS011;27942;47.510;18.966;2022-08-16T06:29:44;1.20;;;0.73;;
42284;SDS011;27942;47.510;18.966;2022-08-16T06:32:10;2.20;;;1.25;;
42284;SDS011;27942;47.510;18.966;2022-08-16T06:34:35;2.10;;;0.90;;
42284;SDS011;27942;47.510;18.966;2022-08-16T06:37:01;1.83;;;1.00;;
42284;SDS011;27942;47.510;18.966;2022-08-16T06:39:26;1.30;;;0.80;;
42284;SDS011;27942;47.510;18.966;2022-08-16T06:41:51;1.73;;;1.20;;
42284;SDS011;27942;47.510;18.966;2022-08-16T06:44:16;1.90;;;0.80;;
42284;SDS011;27942;47.510;18.966;2022-08-16T06:46:42;2.20;;;0.95;;
42284;SDS011;27942;47.510;18.966;2022-08-16T06:49:08;0.52;;;0.50;;
42284;SDS011;27942;47.510;18.966;2022-08-16T06:51:34;1.73;;;0.63;;
42284;SDS011;27942;47.510;18.966;2022-08-16T06:54:00;1.00;;;0.70;;
42284;SDS011;27942;47.510;18.966;2022-08-16T06:56:26;1.05;;;0.75;;
42284;SDS011;27942;47.510;18.966;2022-08-16T06:58:51;1.95;;;1.08;;
42284;SDS011;27942;47.510;18.966;2022-08-16T07:01:17;0.93;;;0.63;;
42284;SDS011;27942;47.510;18.966;2022-08-16T07:03:42;3.00;;;0.82;;
42284;SDS011;27942;47.510;18.966;2022-08-16T07:06:08;1.65;;;0.75;;
42284;SDS011;27942;47.510;18.966;2022-08-16T07:08:33;1.17;;;0.65;;
42284;SDS011;27942;47.510;18.966;2022-08-16T07:10:58;1.35;;;0.90;;
42284;SDS011;27942;47.510;18.966;2022-08-16T07:13:24;1.17;;;0.77;;
42284;SDS011;27942;47.510;18.966;2022-08-16T07:15:49;2.10;;;1.23;;
42284;SDS011;27942;47.510;18.966;2022-08-16T07:18:15;1.95;;;0.90;;
42284;SDS011;27942;47.510;18.966;2022-08-16T07:20:44;2.05;;;1.23;;
42284;SDS011;27942;47.510;18.966;2022-08-16T07:23:09;1.15;;;0.70;;
42284;SDS011;27942;47.510;18.966;2022-08-16T07:25:35;2.13;;;1.00;;
42284;SDS011;27942;47.510;18.966;2022-08-16T07:28:00;1.38;;;0.88;;
42284;SDS011;27942;47.510;18.966;2022-08-16T07:30:26;2.53;;;1.20;;
42284;SDS011;27942;47.510;18.966;2022-08-16T07:32:51;1.83;;;0.90;;
42284;SDS011;27942;47.510;18.966;2022-08-16T07:35:17;3.30;;;1.30;;
42284;SDS011;27942;47.510;18.966;2022-08-16T07:37:42;1.15;;;1.05;;
42284;SDS011;27942;47.510;18.966;2022-08-16T07:40:08;1.48;;;0.95;;
42284;SDS011;27942;47.510;18.966;2022-08-16T07:42:34;1.52;;;0.88;;
42284;SDS011;27942;47.510;18.966;2022-08-16T07:44:59;4.85;;;1.10;;
42284;SDS011;27942;47.510;18.966;2022-08-16T07:47:24;1.67;;;1.10;;
42284;SDS011;27942;47.510;18.966;2022-08-16T07:49:49;2.05;;;1.35;;
42284;SDS011;27942;47.510;18.966;2022-08-16T07:52:15;1.05;;;0.70;;
42284;SDS011;27942;47.510;18.966;2022-08-16T07:54:40;1.45;;;0.80;;
42284;SDS011;27942;47.510;18.966;2022-08-16T07:57:05;0.85;;;0.75;;
42284;SDS011;27942;47.510;18.966;2022-08-16T07:59:31;1.63;;;1.05;;
42284;SDS011;27942;47.510;18.966;2022-08-16T08:01:56;2.33;;;1.43;;
42284;SDS011;27942;47.510;18.966;2022-08-16T08:04:21;2.85;;;1.40;;
42284;SDS011;27942;47.510;18.966;2022-08-16T08:06:46;1.52;;;1.02;;
42284;SDS011;27942;47.510;18.966;2022-08-16T08:09:12;2.25;;;1.25;;
42284;SDS011;27942;47.510;18.966;2022-08-16T08:11:37;2.05;;;1.23;;
42284;SDS011;27942;47.510;18.966;2022-08-16T08:14:03;2.72;;;1.50;;
42284;SDS011;27942;47.510;18.966;2022-08-16T08:16:28;1.75;;;1.15;;
42284;SDS011;27942;47.510;18.966;2022-08-16T08:18:53;2.03;;;1.05;;
42284;SDS011;27942;47.510;18.966;2022-08-16T08:21:20;2.05;;;1.20;;
42284;SDS011;27942;47.510;18.966;2022-08-16T08:23:45;2.63;;;1.48;;
42284;SDS011;27942;47.510;18.966;2022-08-16T08:26:11;2.83;;;1.20;;
42284;SDS011;27942;47.510;18.966;2022-08-16T08:28:36;1.80;;;0.93;;
42284;SDS011;27942;47.510;18.966;2022-08-16T08:31:02;1.35;;;0.88;;
42284;SDS011;27942;47.510;18.966;2022-08-16T08:33:28;1.95;;;0.98;;
42284;SDS011;27942;47.510;18.966;2022-08-16T08:35:57;1.52;;;0.93;;
42284;SDS011;27942;47.510;18.966;2022-08-16T08:38:22;1.63;;;0.85;;
42284;SDS011;27942;47.510;18.966;2022-08-16T08:40:47;2.65;;;1.10;;
42284;SDS011;27942;47.510;18.966;2022-08-16T08:43:13;1.45;;;0.80;;
42284;SDS011;27942;47.510;18.966;2022-08-16T08:45:41;1.42;;;0.80;;
42284;SDS011;27942;47.510;18.966;2022-08-16T08:48:06;1.73;;;0.80;;
42284;SDS011;27942;47.510;18.966;2022-08-16T08:50:32;1.23;;;0.52;;
42284;SDS011;27942;47.510;18.966;2022-08-16T08:52:57;1.20;;;0.77;;
42284;SDS011;27942;47.510;18.966;2022-08-16T08:55:22;0.70;;;0.50;;
42284;SDS011;27942;47.510;18.966;2022-08-16T08:57:49;0.63;;;0.50;;
42284;SDS011;27942;47.510;18.966;2022-08-16T09:00:15;1.25;;;0.70;;
42284;SDS011;27942;47.510;18.966;2022-08-16T09:02:42;0.88;;;0.63;;
42284;SDS011;27942;47.510;18.966;2022-08-16T09:05:07;1.02;;;0.73;;
42284;SDS011;27942;47.510;18.966;2022-08-16T09:07:33;1.55;;;0.90;;
42284;SDS011;27942;47.510;18.966;2022-08-16T09:09:58;1.55;;;0.95;;
42284;SDS011;27942;47.510;18.966;2022-08-16T09:12:23;1.63;;;0.85;;
42284;SDS011;27942;47.510;18.966;2022-08-16T09:14:49;0.98;;;0.60;;
42284;SDS011;27942;47.510;18.966;2022-08-16T09:17:14;1.13;;;0.90;;
42284;SDS011;27942;47.510;18.966;2022-08-16T09:19:39;1.73;;;0.70;;
42284;SDS011;27942;47.510;18.966;2022-08-16T09:22:06;2.17;;;0.82;;
42284;SDS011;27942;47.510;18.966;2022-08-16T09:24:32;1.65;;;0.82;;
42284;SDS011;27942;47.510;18.966;2022-08-16T09:26:57;1.75;;;1.05;;
42284;SDS011;27942;47.510;18.966;2022-08-16T09:29:23;0.98;;;0.70;;
42284;SDS011;27942;47.510;18.966;2022-08-16T09:31:48;1.13;;;0.73;;
42284;SDS011;27942;47.510;18.966;2022-08-16T09:34:14;2.72;;;0.95;;
42284;SDS011;27942;47.510;18.966;2022-08-16T09:36:39;1.63;;;0.90;;
42284;SDS011;27942;47.510;18.966;2022-08-16T09:39:04;1.15;;;0.80;;
42284;SDS011;27942;47.510;18.966;2022-08-16T09:41:30;1.80;;;1.05;;
42284;SDS011;27942;47.510;18.966;2022-08-16T09:43:56;2.17;;;1.00;;
42284;SDS011;27942;47.510;18.966;2022-08-16T09:46:21;1.23;;;0.75;;
42284;SDS011;27942;47.510;18.966;2022-08-16T09:48:47;1.83;;;1.02;;
42284;SDS011;27942;47.510;18.966;2022-08-16T09:51:13;1.27;;;0.88;;
42284;SDS011;27942;47.510;18.966;2022-08-16T09:53:39;1.42;;;0.80;;
42284;SDS011;27942;47.510;18.966;2022-08-16T09:56:10;1.77;;;0.88;;
42284;SDS011;27942;47.510;18.966;2022-08-16T09:58:38;1.92;;;1.10;;
42284;SDS011;27942;47.510;18.966;2022-08-16T10:01:04;1.70;;;1.08;;
42284;SDS011;27942;47.510;18.966;2022-08-16T10:03:29;1.15;;;0.80;;
42284;SDS011;27942;47.510;18.966;2022-08-16T10:05:54;1.05;;;0.70;;
42284;SDS011;27942;47.510;18.966;2022-08-16T10:08:20;2.15;;;1.00;;
42284;SDS011;27942;47.510;18.966;2022-08-16T10:10:45;1.97;;;0.97;;
42284;SDS011;27942;47.510;18.966;2022-08-16T10:13:30;0.73;;;0.50;;
42284;SDS011;27942;47.510;18.966;2022-08-16T10:15:57;1.23;;;0.90;;
42284;SDS011;27942;47.510;18.966;2022-08-16T10:18:23;1.73;;;1.02;;
42284;SDS011;27942;47.510;18.966;2022-08-16T10:23:16;1.50;;;0.90;;
42284;SDS011;27942;47.510;18.966;2022-08-16T10:25:42;1.05;;;0.65;;
42284;SDS011;27942;47.510;18.966;2022-08-16T10:28:09;1.40;;;0.90;;
42284;SDS011;27942;47.510;18.966;2022-08-16T10:30:34;1.13;;;0.73;;
42284;SDS011;27942;47.510;18.966;2022-08-16T10:33:00;2.13;;;1.00;;
42284;SDS011;27942;47.510;18.966;2022-08-16T10:35:25;1.85;;;0.90;;
42284;SDS011;27942;47.510;18.966;2022-08-16T10:37:50;1.25;;;0.70;;
42284;SDS011;27942;47.510;18.966;2022-08-16T10:40:16;3.70;;;1.80;;
42284;SDS011;27942;47.510;18.966;2022-08-16T10:42:42;1.75;;;0.90;;
42284;SDS011;27942;47.510;18.966;2022-08-16T10:45:07;0.73;;;0.65;;
42284;SDS011;27942;47.510;18.966;2022-08-16T10:47:33;1.70;;;1.10;;
42284;SDS011;27942;47.510;18.966;2022-08-16T10:49:59;1.25;;;0.80;;
42284;SDS011;27942;47.510;18.966;2022-08-16T10:52:24;1.02;;;0.80;;
42284;SDS011;27942;47.510;18.966;2022-08-16T10:54:49;2.30;;;0.95;;
42284;SDS011;27942;47.510;18.966;2022-08-16T10:57:15;1.48;;;0.90;;
42284;SDS011;27942;47.510;18.966;2022-08-16T10:59:40;2.05;;;1.15;;
42284;SDS011;27942;47.510;18.966;2022-08-16T11:02:07;1.10;;;0.80;;
42284;SDS011;27942;47.510;18.966;2022-08-16T11:04:33;2.03;;;0.80;;
42284;SDS011;27942;47.510;18.966;2022-08-16T11:06:58;1.08;;;0.70;;
42284;SDS011;27942;47.510;18.966;2022-08-16T11:09:23;1.73;;;1.13;;
42284;SDS011;27942;47.510;18.966;2022-08-16T11:11:49;1.48;;;0.80;;
42284;SDS011;27942;47.510;18.966;2022-08-16T11:14:14;1.20;;;1.00;;
42284;SDS011;27942;47.510;18.966;2022-08-16T11:16:40;1.30;;;0.80;;
42284;SDS011;27942;47.510;18.966;2022-08-16T11:19:06;2.00;;;1.02;;
42284;SDS011;27942;47.510;18.966;2022-08-16T11:21:31;1.08;;;0.70;;
42284;SDS011;27942;47.510;18.966;2022-08-16T11:23:56;1.63;;;0.85;;
42284;SDS011;27942;47.510;18.966;2022-08-16T11:26:22;1.23;;;0.80;;
42284;SDS011;27942;47.510;18.966;2022-08-16T11:28:47;2.78;;;1.10;;
42284;SDS011;27942;47.510;18.966;2022-08-16T11:31:15;2.15;;;0.95;;
42284;SDS011;27942;47.510;18.966;2022-08-16T11:33:40;2.70;;;1.17;;
42284;SDS011;27942;47.510;18.966;2022-08-16T11:36:05;1.70;;;0.93;;
42284;SDS011;27942;47.510;18.966;2022-08-16T11:38:30;1.88;;;1.00;;
42284;SDS011;27942;47.510;18.966;2022-08-16T11:40:57;4.47;;;0.90;;
42284;SDS011;27942;47.510;18.966;2022-08-16T11:43:27;2.35;;;0.95;;
42284;SDS011;27942;47.510;18.966;2022-08-16T11:45:54;1.77;;;0.90;;
42284;SDS011;27942;47.510;18.966;2022-08-16T11:48:21;1.40;;;0.85;;
42284;SDS011;27942;47.510;18.966;2022-08-16T11:50:47;2.03;;;0.73;;
42284;SDS011;27942;47.510;18.966;2022-08-16T11:53:12;1.67;;;0.85;;
42284;SDS011;27942;47.510;18.966;2022-08-16T11:55:39;6.15;;;0.98;;
42284;SDS011;27942;47.510;18.966;2022-08-16T11:58:06;1.50;;;0.80;;
42284;SDS011;27942;47.510;18.966;2022-08-16T12:00:31;2.63;;;1.00;;
42284;SDS011;27942;47.510;18.966;2022-08-16T12:02:57;2.35;;;1.05;;
42284;SDS011;27942;47.510;18.966;2022-08-16T12:05:22;1.20;;;0.73;;
42284;SDS011;27942;47.510;18.966;2022-08-16T12:07:48;1.25;;;0.73;;
42284;SDS011;27942;47.510;18.966;2022-08-16T12:10:16;2.28;;;1.33;;
42284;SDS011;27942;47.510;18.966;2022-08-16T12:12:42;1.73;;;1.08;;
42284;SDS011;27942;47.510;18.966;2022-08-16T12:15:08;1.80;;;1.20;;
42284;SDS011;27942;47.510;18.966;2022-08-16T12:17:33;2.72;;;1.40;;
42284;SDS011;27942;47.510;18.966;2022-08-16T12:19:59;2.38;;;1.45;;
42284;SDS011;27942;47.510;18.966;2022-08-16T12:22:25;2.58;;;1.45;;
42284;SDS011;27942;47.510;18.966;2022-08-16T12:24:50;2.17;;;1.27;;
42284;SDS011;27942;47.510;18.966;2022-08-16T12:27:15;2.67;;;1.15;;
42284;SDS011;27942;47.510;18.966;2022-08-16T12:29:41;2.67;;;1.17;;
42284;SDS011;27942;47.510;18.966;2022-08-16T12:32:06;1.38;;;0.80;;
42284;SDS011;27942;47.510;18.966;2022-08-16T12:34:32;5.13;;;1.23;;
42284;SDS011;27942;47.510;18.966;2022-08-16T12:36:57;4.78;;;1.58;;
42284;SDS011;27942;47.510;18.966;2022-08-16T12:39:26;5.85;;;1.63;;
42284;SDS011;27942;47.510;18.966;2022-08-16T12:41:51;2.67;;;1.40;;
42284;SDS011;27942;47.510;18.966;2022-08-16T12:44:17;3.08;;;1.90;;
42284;SDS011;27942;47.510;18.966;2022-08-16T12:46:42;4.00;;;1.70;;
42284;SDS011;27942;47.510;18.966;2022-08-16T12:49:27;3.60;;;1.52;;
42284;SDS011;27942;47.510;18.966;2022-08-16T12:51:53;3.85;;;1.60;;
42284;SDS011;27942;47.510;18.966;2022-08-16T12:54:18;2.20;;;1.20;;
42284;SDS011;27942;47.510;18.966;2022-08-16T12:56:43;2.50;;;1.20;;
42284;SDS011;27942;47.510;18.966;2022-08-16T12:59:09;2.15;;;1.70;;
42284;SDS011;27942;47.510;18.966;2022-08-16T13:01:36;2.85;;;1.67;;
42284;SDS011;27942;47.510;18.966;2022-08-16T13:04:02;2.15;;;1.50;;
42284;SDS011;27942;47.510;18.966;2022-08-16T13:06:28;2.38;;;1.58;;
42284;SDS011;27942;47.510;18.966;2022-08-16T13:08:54;4.45;;;2.25;;
42284;SDS011;27942;47.510;18.966;2022-08-16T13:11:22;2.78;;;1.45;;
42284;SDS011;27942;47.510;18.966;2022-08-16T13:13:48;2.65;;;1.50;;
42284;SDS011;27942;47.510;18.966;2022-08-16T13:16:14;2.47;;;1.70;;
42284;SDS011;27942;47.510;18.966;2022-08-16T13:18:39;2.70;;;1.75;;
42284;SDS011;27942;47.510;18.966;2022-08-16T13:21:05;2.80;;;1.65;;
42284;SDS011;27942;47.510;18.966;2022-08-16T13:23:31;3.72;;;1.98;;
42284;SDS011;27942;47.510;18.966;2022-08-16T13:25:56;3.65;;;1.83;;
42284;SDS011;27942;47.510;18.966;2022-08-16T13:28:22;2.50;;;1.77;;
42284;SDS011;27942;47.510;18.966;2022-08-16T13:30:50;3.35;;;1.77;;
42284;SDS011;27942;47.510;18.966;2022-08-16T13:33:20;3.80;;;2.00;;
42284;SDS011;27942;47.510;18.966;2022-08-16T13:35:48;2.60;;;1.67;;
42284;SDS011;27942;47.510;18.966;2022-08-16T13:38:14;2.75;;;1.70;;
42284;SDS011;27942;47.510;18.966;2022-08-16T13:40:39;2.20;;;1.58;;
42284;SDS011;27942;47.510;18.966;2022-08-16T13:43:05;2.63;;;1.50;;
42284;SDS011;27942;47.510;18.966;2022-08-16T13:45:31;2.80;;;1.42;;
42284;SDS011;27942;47.510;18.966;2022-08-16T13:47:57;2.80;;;1.58;;
42284;SDS011;27942;47.510;18.966;2022-08-16T13:50:23;2.10;;;1.20;;
42284;SDS011;27942;47.510;18.966;2022-08-16T13:52:49;3.20;;;1.35;;
42284;SDS011;27942;47.510;18.966;2022-08-16T13:55:14;2.08;;;1.45;;
42284;SDS011;27942;47.510;18.966;2022-08-16T13:57:40;2.55;;;1.35;;
42284;SDS011;27942;47.510;18.966;2022-08-16T14:00:06;2.28;;;1.60;;
42284;SDS011;27942;47.510;18.966;2022-08-16T14:04:58;2.00;;;1.17;;
42284;SDS011;27942;47.510;18.966;2022-08-16T14:07:23;1.42;;;1.08;;
42284;SDS011;27942;47.510;18.966;2022-08-16T14:09:49;1.80;;;1.08;;
42284;SDS011;27942;47.510;18.966;2022-08-16T14:12:33;1.98;;;1.20;;
42284;SDS011;27942;47.510;18.966;2022-08-16T14:14:58;1.58;;;1.13;;
42284;SDS011;27942;47.510;18.966;2022-08-16T14:17:24;1.10;;;0.90;;
42284;SDS011;27942;47.510;18.966;2022-08-16T14:19:50;2.95;;;1.25;;
42284;SDS011;27942;47.510;18.966;2022-08-16T14:22:26;2.25;;;1.25;;
42284;SDS011;27942;47.510;18.966;2022-08-16T14:24:53;1.23;;;0.73;;
42284;SDS011;27942;47.510;18.966;2022-08-16T14:27:20;1.70;;;0.95;;
42284;SDS011;27942;47.510;18.966;2022-08-16T14:29:46;1.52;;;1.13;;
42284;SDS011;27942;47.510;18.966;2022-08-16T14:32:12;2.38;;;1.23;;
42284;SDS011;27942;47.510;18.966;2022-08-16T14:34:38;1.42;;;0.77;;